createdAt,value
2018-06-10T00:01:31.999Z,100010
2018-06-10T00:03:58.018Z,100015
2018-06-10T00:06:24.042Z,100008
2018-06-10T00:08:50.051Z,100011
2018-06-10T00:11:16.110Z,100010
2018-06-10T00:13:42.126Z,100012
2018-06-10T00:16:08.153Z,100003
2018-06-10T00:18:34.162Z,100007
2018-06-10T00:21:00.185Z,100005
2018-06-10T00:23:26.201Z,100006
2018-06-10T00:25:52.245Z,99999
2018-06-10T00:28:18.254Z,99999
2018-06-10T00:30:44.274Z,99992
2018-06-10T00:33:10.287Z,99989
2018-06-10T00:35:36.316Z,99994
2018-06-10T00:38:02.339Z,99990
2018-06-10T00:40:28.369Z,99989
2018-06-10T00:42:54.384Z,99985
2018-06-10T00:45:20.406Z,99992
2018-06-10T00:47:46.418Z,99993
2018-06-10T00:50:12.439Z,100001
2018-06-10T00:52:38.449Z,99998
2018-06-10T00:55:04.506Z,99996
2018-06-10T00:57:30.534Z,99999
2018-06-10T00:59:56.615Z,99999
2018-06-10T01:02:22.633Z,99998
2018-06-10T01:04:48.643Z,100004
2018-06-10T01:07:14.662Z,100008
2018-06-10T01:09:40.669Z,100010
2018-06-10T01:12:06.700Z,100006
2018-06-10T01:14:32.716Z,100012
2018-06-10T01:16:58.734Z,100009
2018-06-10T01:19:24.751Z,100008
2018-06-10T01:21:50.777Z,100002
2018-06-10T01:24:16.777Z,99999
2018-06-10T01:26:42.800Z,99999
2018-06-10T01:29:08.802Z,99997
2018-06-10T01:31:34.817Z,99995
2018-06-10T01:34:00.834Z,99990
2018-06-10T01:36:26.878Z,99995
2018-06-10T01:38:52.886Z,99993
2018-06-10T01:41:18.902Z,99995
2018-06-10T01:43:44.962Z,99994
2018-06-10T01:46:11.025Z,99990
2018-06-10T01:48:37.083Z,99992
2018-06-10T01:51:03.158Z,99993
2018-06-10T01:53:29.174Z,99983
2018-06-10T01:55:55.226Z,99987
2018-06-10T01:58:21.439Z,99987
2018-06-10T02:00:47.563Z,99984
2018-06-10T02:03:13.594Z,99985
2018-06-10T02:05:39.718Z,99977
2018-06-10T02:08:05.769Z,99984
2018-06-10T02:10:31.810Z,99983
2018-06-10T02:12:57.912Z,99989
2018-06-10T02:15:24.099Z,99981
2018-06-10T02:17:50.126Z,99989
2018-06-10T02:20:16.130Z,99984
2018-06-10T02:22:42.208Z,99979
2018-06-10T02:25:08.252Z,99979
2018-06-10T02:27:34.358Z,99985
2018-06-10T02:30:00.679Z,99981
2018-06-10T02:32:26.838Z,99988
2018-06-10T02:34:52.890Z,99982
2018-06-10T02:37:19.002Z,99983
2018-06-10T02:39:45.054Z,99984
2018-06-10T02:42:11.103Z,99987
2018-06-10T02:44:37.167Z,99982
2018-06-10T02:47:03.352Z,99984
2018-06-10T02:49:29.411Z,99980
2018-06-10T02:51:55.506Z,99976
2018-06-10T02:54:21.606Z,99976
2018-06-10T02:56:47.688Z,99984
2018-06-10T02:59:13.759Z,99985
2018-06-10T03:01:39.820Z,99976
2018-06-10T03:04:05.899Z,99979
2018-06-10T03:06:31.987Z,99979
2018-06-10T03:08:58.024Z,99970
2018-06-10T03:11:24.098Z,99975
2018-06-10T03:13:50.133Z,99975
2018-06-10T03:16:16.165Z,99979
2018-06-10T03:18:42.235Z,99976
2018-06-10T03:21:08.295Z,99979
2018-06-10T03:23:34.368Z,99976
2018-06-10T03:26:00.403Z,99979
2018-06-10T03:28:26.444Z,99978
2018-06-10T03:30:52.445Z,99990
2018-06-10T03:33:18.482Z,99984
2018-06-10T03:35:44.503Z,99990
2018-06-10T03:38:10.546Z,99986
2018-06-10T03:40:36.570Z,99984
2018-06-10T03:43:02.626Z,99981
2018-06-10T03:45:28.650Z,99982
2018-06-10T03:47:54.685Z,99984
2018-06-10T03:50:20.699Z,99982
2018-06-10T03:52:46.721Z,99984
2018-06-10T03:55:12.746Z,99983
2018-06-10T03:57:38.780Z,99979
2018-06-10T04:00:04.804Z,99984
2018-06-10T04:02:30.836Z,99977
2018-06-10T04:04:56.865Z,99980
2018-06-10T04:07:22.886Z,99975
2018-06-10T04:09:48.909Z,99974
2018-06-10T04:12:14.934Z,99978
2018-06-10T04:14:40.959Z,99978
2018-06-10T04:17:07.014Z,99982
2018-06-10T04:19:33.025Z,99982
2018-06-10T04:21:59.044Z,99983
2018-06-10T04:24:25.049Z,99993
2018-06-10T04:26:51.089Z,99989
2018-06-10T04:29:17.101Z,99994
2018-06-10T04:31:43.123Z,99999
2018-06-10T04:34:09.140Z,99996
2018-06-10T04:36:35.164Z,99984
2018-06-10T04:39:01.209Z,99981
2018-06-10T04:41:27.219Z,99982
2018-06-10T04:43:53.242Z,99984
2018-06-10T04:46:19.256Z,99983
2018-06-10T04:48:45.349Z,99991
2018-06-10T04:51:11.369Z,99986
2018-06-10T04:53:37.395Z,99987
2018-06-10T04:56:03.405Z,99998
2018-06-10T04:58:29.446Z,99988
2018-06-10T05:00:55.464Z,99979
2018-06-10T05:03:21.490Z,99979
2018-06-10T05:05:47.511Z,99989
2018-06-10T05:08:13.641Z,99989
2018-06-10T05:10:39.650Z,100002
2018-06-10T05:13:05.687Z,99998
2018-06-10T05:15:31.718Z,99999
2018-06-10T05:17:57.741Z,100002
2018-06-10T05:20:23.758Z,100001
2018-06-10T05:22:49.778Z,100004
2018-06-10T05:25:15.787Z,100002
2018-06-10T05:27:41.849Z,100009
2018-06-10T05:30:07.877Z,100016
2018-06-10T05:32:33.918Z,100009
2018-06-10T05:34:59.929Z,100009
2018-06-10T05:37:25.950Z,100014
2018-06-10T05:39:51.967Z,100006
2018-06-10T05:42:17.993Z,100006
2018-06-10T05:44:44.020Z,100010
2018-06-10T05:47:10.040Z,100011
2018-06-10T05:49:36.065Z,100014
2018-06-10T05:52:02.087Z,100012
2018-06-10T05:54:28.127Z,100015
2018-06-10T05:56:54.150Z,100016
2018-06-10T05:59:20.278Z,100010
2018-06-10T06:01:46.255Z,100017
2018-06-10T06:04:12.286Z,100015
2018-06-10T06:06:38.330Z,100014
2018-06-10T06:09:04.366Z,100021
2018-06-10T06:11:30.374Z,100020
2018-06-10T06:13:56.403Z,100021
2018-06-10T06:16:22.419Z,100018
2018-06-10T06:18:48.454Z,100029
2018-06-10T06:21:14.468Z,100023
2018-06-10T06:23:40.503Z,100032
2018-06-10T06:26:06.521Z,100026
2018-06-10T06:28:32.554Z,100027
2018-06-10T06:30:58.565Z,100029
2018-06-10T06:33:24.600Z,100022
2018-06-10T06:35:50.686Z,100026
2018-06-10T06:38:16.708Z,100023
2018-06-10T06:40:42.727Z,100031
2018-06-10T06:43:08.754Z,100016
2018-06-10T06:45:34.782Z,100020
2018-06-10T06:48:00.802Z,100026
2018-06-10T06:50:26.841Z,100023
2018-06-10T06:52:52.876Z,100016
2018-06-10T06:55:18.891Z,100014
2018-06-10T06:57:44.928Z,100014
2018-06-10T07:00:10.938Z,100015
2018-06-10T07:02:36.971Z,100017
2018-06-10T07:05:03.006Z,100011
2018-06-10T07:07:29.018Z,100015
2018-06-10T07:09:55.032Z,100020
2018-06-10T07:12:21.056Z,100016
2018-06-10T07:14:47.080Z,100018
2018-06-10T07:17:13.099Z,100023
2018-06-10T07:19:39.199Z,100018
2018-06-10T07:22:05.220Z,100023
2018-06-10T07:24:31.237Z,100017
2018-06-10T07:26:57.253Z,100013
2018-06-10T07:29:23.329Z,100011
2018-06-10T07:31:49.342Z,100010
2018-06-10T07:34:15.440Z,100025
2018-06-10T07:36:41.466Z,100026
2018-06-10T07:39:07.495Z,100015
2018-06-10T07:41:33.624Z,100018
2018-06-10T07:43:59.656Z,100024
2018-06-10T07:46:25.753Z,100020
2018-06-10T07:48:51.778Z,100023
2018-06-10T07:51:17.778Z,100024
2018-06-10T07:53:43.803Z,100017
2018-06-10T07:56:09.814Z,100018
2018-06-10T07:58:35.846Z,100011
2018-06-10T08:01:01.863Z,100009
2018-06-10T08:03:27.882Z,100022
2018-06-10T08:05:53.903Z,100019
2018-06-10T08:08:19.929Z,100021
2018-06-10T08:10:45.942Z,100021
2018-06-10T08:13:11.959Z,100023
2018-06-10T08:15:37.980Z,100011
2018-06-10T08:18:04.321Z,100018
2018-06-10T08:20:30.374Z,100009
2018-06-10T08:22:56.403Z,100005
2018-06-10T08:25:22.435Z,100007
2018-06-10T08:27:48.459Z,100008
2018-06-10T08:30:14.510Z,100003
2018-06-10T08:32:40.535Z,100015
2018-06-10T08:35:06.663Z,100008
2018-06-10T08:37:32.788Z,100009
2018-06-10T08:39:58.827Z,100000
2018-06-10T08:42:24.850Z,100001
2018-06-10T08:44:50.962Z,100008
2018-06-10T08:47:17.003Z,100010
2018-06-10T08:49:43.062Z,100006
2018-06-10T08:52:09.104Z,100006
2018-06-10T08:54:35.135Z,100008
2018-06-10T08:57:01.239Z,99998
2018-06-10T08:59:27.214Z,99998
2018-06-10T09:01:53.230Z,99997
2018-06-10T09:04:19.333Z,99996
2018-06-10T09:06:45.354Z,99998
2018-06-10T09:09:11.391Z,100002
2018-06-10T09:11:37.419Z,100010
2018-06-10T09:14:03.586Z,100014
2018-06-10T09:16:29.746Z,100010
2018-06-10T09:18:55.799Z,100008
2018-06-10T09:21:21.816Z,100009
2018-06-10T09:23:47.923Z,100001
2018-06-10T09:26:13.971Z,100002
2018-06-10T09:28:40.001Z,100005
2018-06-10T09:31:06.032Z,100008
2018-06-10T09:33:32.139Z,100003
2018-06-10T09:35:58.571Z,100007
2018-06-10T09:38:25.252Z,100001
2018-06-10T09:40:52.056Z,100004
2018-06-10T09:43:18.147Z,100003
2018-06-10T09:45:44.200Z,100001
2018-06-10T09:48:10.216Z,99994
2018-06-10T09:50:36.239Z,100000
2018-06-10T09:53:02.263Z,100002
2018-06-10T09:55:28.458Z,100007
2018-06-10T09:57:54.525Z,100008
2018-06-10T10:00:20.554Z,100006
2018-06-10T10:02:46.582Z,100011
2018-06-10T10:05:12.598Z,100008
2018-06-10T10:07:38.650Z,100006
2018-06-10T10:10:04.676Z,99997
2018-06-10T10:12:30.685Z,100007
2018-06-10T10:14:56.741Z,100001
2018-06-10T10:17:22.781Z,99997
2018-06-10T10:19:48.806Z,100001
2018-06-10T10:22:15.172Z,99989
2018-06-10T10:24:41.287Z,99996
2018-06-10T10:27:07.308Z,99992
2018-06-10T10:29:33.338Z,99991
2018-06-10T10:31:59.460Z,99984
2018-06-10T10:34:25.485Z,99985
2018-06-10T10:36:51.506Z,99980
2018-06-10T10:39:17.531Z,99985
2018-06-10T10:41:43.570Z,99970
2018-06-10T10:44:09.604Z,99972
2018-06-10T10:46:35.703Z,99970
2018-06-10T10:49:01.722Z,99964
2018-06-10T10:51:27.765Z,99967
2018-06-10T10:53:53.864Z,99965
2018-06-10T10:56:19.979Z,99971
2018-06-10T10:58:46.019Z,99954
2018-06-10T11:01:12.061Z,99955
2018-06-10T11:03:38.162Z,99953
2018-06-10T11:06:04.185Z,99948
2018-06-10T11:08:30.208Z,99945
2018-06-10T11:10:56.239Z,99944
2018-06-10T11:13:22.677Z,99936
2018-06-10T11:15:48.750Z,99936
2018-06-10T11:18:14.804Z,99944
2018-06-10T11:20:40.819Z,99949
2018-06-10T11:23:06.871Z,99941
2018-06-10T11:25:32.903Z,99940
2018-06-10T11:27:58.942Z,99935
2018-06-10T11:30:24.975Z,99931
2018-06-10T11:32:50.978Z,99929
2018-06-10T11:35:16.997Z,99930
2018-06-10T11:37:43.005Z,99921
2018-06-10T11:40:09.032Z,99921
2018-06-10T11:42:35.098Z,99922
2018-06-10T11:45:01.288Z,99934
2018-06-10T11:47:27.342Z,99917
2018-06-10T11:49:53.365Z,99916
2018-06-10T11:52:19.450Z,99913
2018-06-10T11:54:45.499Z,99920
2018-06-10T11:57:11.538Z,99918
2018-06-10T11:59:37.553Z,99918
2018-06-10T12:02:03.641Z,99920
2018-06-10T12:04:29.644Z,99913
2018-06-10T12:06:55.675Z,99911
2018-06-10T12:09:21.689Z,99920
2018-06-10T12:11:47.792Z,99912
2018-06-10T12:14:13.813Z,99907
2018-06-10T12:16:39.841Z,99907
2018-06-10T12:19:05.863Z,99897
2018-06-10T12:21:31.895Z,99894
2018-06-10T12:23:57.910Z,99901
2018-06-10T12:26:23.943Z,99906
2018-06-10T12:28:49.970Z,99904
2018-06-10T12:31:15.993Z,99902
2018-06-10T12:33:42.001Z,99896
2018-06-10T12:36:08.042Z,99893
2018-06-10T12:38:34.066Z,99896
2018-06-10T12:41:00.118Z,99900
2018-06-10T12:43:26.123Z,99900
2018-06-10T12:45:52.142Z,99895
2018-06-10T12:48:18.162Z,99893
2018-06-10T12:50:44.186Z,99894
2018-06-10T12:53:10.250Z,99897
2018-06-10T12:55:36.351Z,99895
2018-06-10T12:58:02.375Z,99896
2018-06-10T13:00:28.397Z,99890
2018-06-10T13:02:54.550Z,99882
2018-06-10T13:05:20.624Z,99886
2018-06-10T13:07:46.698Z,99889
2018-06-10T13:10:12.740Z,99880
2018-06-10T13:12:38.892Z,99882
2018-06-10T13:15:05.017Z,99872
2018-06-10T13:17:31.042Z,99871
2018-06-10T13:19:57.070Z,99880
2018-06-10T13:22:23.955Z,99879
2018-06-10T13:24:49.970Z,99878
2018-06-10T13:27:15.988Z,99875
2018-06-10T13:29:41.994Z,99871
2018-06-10T13:32:08.007Z,99872
2018-06-10T13:34:34.009Z,99882
2018-06-10T13:37:00.038Z,99879
2018-06-10T13:39:26.111Z,99880
2018-06-10T13:41:52.368Z,99879
2018-06-10T13:44:18.567Z,99872
2018-06-10T13:46:44.693Z,99876
2018-06-10T13:49:10.707Z,99875
2018-06-10T13:51:36.741Z,99874
2018-06-10T13:54:02.788Z,99881
2018-06-10T13:56:28.805Z,99882
2018-06-10T13:58:54.931Z,99884
2018-06-10T14:01:20.979Z,99890
2018-06-10T14:03:46.994Z,99880
2018-06-10T14:06:13.031Z,99880
2018-06-10T14:08:39.107Z,99883
2018-06-10T14:11:05.126Z,99880
2018-06-10T14:13:31.144Z,99880
2018-06-10T14:15:57.187Z,99888
2018-06-10T14:18:23.202Z,99882
2018-06-10T14:20:49.238Z,99881
2018-06-10T14:23:15.263Z,99878
2018-06-10T14:25:41.266Z,99866
2018-06-10T14:28:07.303Z,99855
2018-06-10T14:30:33.327Z,99860
2018-06-10T14:32:59.351Z,99854
2018-06-10T14:35:25.370Z,99849
2018-06-10T14:37:51.420Z,99841
2018-06-10T14:40:17.462Z,99844
2018-06-10T14:42:43.523Z,99849
2018-06-10T14:45:09.547Z,99856
2018-06-10T14:47:35.571Z,99851
2018-06-10T14:50:01.578Z,99849
2018-06-10T14:52:27.600Z,99845
2018-06-10T14:54:53.627Z,99839
2018-06-10T14:57:19.658Z,99833
2018-06-10T14:59:45.686Z,99841
2018-06-10T15:02:11.714Z,99832
2018-06-10T15:04:37.765Z,99829
2018-06-10T15:07:03.842Z,99826
2018-06-10T15:09:29.856Z,99826
2018-06-10T15:11:55.882Z,99822
2018-06-10T15:14:21.912Z,99821
2018-06-10T15:16:47.946Z,99806
2018-06-10T15:19:14.000Z,99804
2018-06-10T15:21:40.136Z,99805
2018-06-10T15:24:06.190Z,99798
2018-06-10T15:26:32.272Z,99795
2018-06-10T15:28:58.307Z,99790
2018-06-10T15:31:24.322Z,99789
2018-06-10T15:33:50.347Z,99792
2018-06-10T15:36:16.355Z,99788
2018-06-10T15:38:42.380Z,99785
2018-06-10T15:41:08.469Z,99792
2018-06-10T15:43:34.550Z,99788
2018-06-10T15:46:00.567Z,99775
2018-06-10T15:48:26.688Z,99774
2018-06-10T15:50:52.705Z,99770
2018-06-10T15:53:19.672Z,99775
2018-06-10T15:55:45.694Z,99774
2018-06-10T15:58:11.725Z,99776
2018-06-10T16:00:37.823Z,99780
2018-06-10T16:03:03.867Z,99783
2018-06-10T16:05:29.874Z,99790
2018-06-10T16:07:55.898Z,99786
2018-06-10T16:10:21.890Z,99786
2018-06-10T16:12:48.054Z,99783
2018-06-10T16:15:14.133Z,99789
2018-06-10T16:17:40.161Z,99778
2018-06-10T16:20:06.175Z,99786
2018-06-10T16:22:32.207Z,99794
2018-06-10T16:24:58.218Z,99783
2018-06-10T16:27:24.234Z,99779
2018-06-10T16:29:50.246Z,99777
2018-06-10T16:32:16.276Z,99768
2018-06-10T16:34:42.284Z,99776
2018-06-10T16:37:08.371Z,99776
2018-06-10T16:39:34.390Z,99786
2018-06-10T16:42:00.510Z,99786
2018-06-10T16:44:26.545Z,99793
2018-06-10T16:46:52.598Z,99792
2018-06-10T16:49:18.628Z,99792
2018-06-10T16:51:44.643Z,99801
2018-06-10T16:54:10.674Z,99800
2018-06-10T16:56:36.693Z,99793
2018-06-10T16:59:02.732Z,99809
2018-06-10T17:01:28.785Z,99810
2018-06-10T17:03:54.826Z,99810
2018-06-10T17:06:20.851Z,99810
2018-06-10T17:08:46.873Z,99802
2018-06-10T17:11:12.878Z,99802
2018-06-10T17:13:38.901Z,99795
2018-06-10T17:16:05.062Z,99786
2018-06-10T17:18:31.149Z,99792
2018-06-10T17:20:57.162Z,99786
2018-06-10T17:23:23.182Z,99791
2018-06-10T17:25:49.223Z,99802
2018-06-10T17:28:15.249Z,99820
2018-06-10T17:30:41.471Z,99825
2018-06-10T17:33:07.550Z,99827
2018-06-10T17:35:33.579Z,99825
2018-06-10T17:37:59.799Z,99823
2018-06-10T17:40:25.911Z,99818
2018-06-10T17:42:51.943Z,99828
2018-06-10T17:45:17.991Z,99829
2018-06-10T17:47:44.278Z,99832
2018-06-10T17:50:10.456Z,99825
2018-06-10T17:52:36.499Z,99817
2018-06-10T17:55:02.567Z,99817
2018-06-10T17:57:28.724Z,99819
2018-06-10T17:59:54.738Z,99810
2018-06-10T18:02:20.808Z,99811
2018-06-10T18:04:46.838Z,99811
2018-06-10T18:07:12.865Z,99811
2018-06-10T18:09:38.897Z,99834
2018-06-10T18:12:04.906Z,99833
2018-06-10T18:14:30.958Z,99848
2018-06-10T18:16:56.976Z,99838
2018-06-10T18:19:22.993Z,99836
2018-06-10T18:21:49.004Z,99831
2018-06-10T18:24:15.055Z,99828
2018-06-10T18:26:41.056Z,99828
2018-06-10T18:29:07.119Z,99835
2018-06-10T18:31:33.222Z,99832
2018-06-10T18:33:59.241Z,99836
2018-06-10T18:36:25.248Z,99850
2018-06-10T18:38:51.288Z,99852
2018-06-10T18:41:17.331Z,99839
2018-06-10T18:43:43.579Z,99845
2018-06-10T18:46:09.599Z,99845
2018-06-10T18:48:35.622Z,99845
2018-06-10T18:51:01.778Z,99841
2018-06-10T18:53:27.859Z,99833
2018-06-10T18:55:53.884Z,99828
2018-06-10T18:58:19.951Z,99827
2018-06-10T19:00:47.154Z,99826
2018-06-10T19:03:13.259Z,99841
2018-06-10T19:05:39.265Z,99840
2018-06-10T19:08:05.311Z,99838
2018-06-10T19:10:31.479Z,99842
2018-06-10T19:12:57.511Z,99845
2018-06-10T19:15:24.427Z,99842
2018-06-10T19:17:50.554Z,99842
2018-06-10T19:20:16.608Z,99839
2018-06-10T19:22:42.903Z,99836
2018-06-10T19:25:09.565Z,99852
2018-06-10T19:27:35.724Z,99847
2018-06-10T19:30:01.744Z,99846
2018-06-10T19:32:27.795Z,99839
2018-06-10T19:34:53.819Z,99834
2018-06-10T19:37:19.879Z,99842
2018-06-10T19:39:45.982Z,99850
2018-06-10T19:42:12.047Z,99857
2018-06-10T19:44:38.647Z,99864
2018-06-10T19:47:04.844Z,99863
2018-06-10T19:49:30.931Z,99884
2018-06-10T19:51:57.580Z,99889
2018-06-10T19:54:23.969Z,99893
2018-06-10T19:56:50.078Z,99889
2018-06-10T19:59:16.386Z,99885
2018-06-10T20:01:42.437Z,99894
2018-06-10T20:04:08.502Z,99902
2018-06-10T20:06:34.594Z,99912
2018-06-10T20:09:00.672Z,99914
2018-06-10T20:11:26.777Z,99917
2018-06-10T20:13:53.097Z,99916
2018-06-10T20:16:19.185Z,99917
2018-06-10T20:18:45.207Z,99918
2018-06-10T20:21:11.237Z,99911
2018-06-10T20:23:37.233Z,99921
2018-06-10T20:26:03.251Z,99927
2018-06-10T20:28:29.273Z,99922
2018-06-10T20:30:55.339Z,99916
2018-06-10T20:33:21.370Z,99913
2018-06-10T20:35:47.401Z,99931
2018-06-10T20:38:13.465Z,99940
2018-06-10T20:40:40.053Z,99947
2018-06-10T20:43:06.178Z,99946
2018-06-10T20:45:32.202Z,99944
2018-06-10T20:47:58.218Z,99939
2018-06-10T20:50:24.247Z,99919
2018-06-10T20:52:50.256Z,99914
2018-06-10T20:55:16.279Z,99918
2018-06-10T20:57:42.304Z,99913
2018-06-10T21:00:08.500Z,99930
2018-06-10T21:02:34.643Z,99943
2018-06-10T21:05:00.822Z,99952
2018-06-10T21:07:27.049Z,99962
2018-06-10T21:09:53.204Z,99957
2018-06-10T21:12:19.693Z,99958
2018-06-10T21:14:46.147Z,99960
2018-06-10T21:17:12.175Z,99971
2018-06-10T21:19:38.430Z,99979
2018-06-10T21:22:05.010Z,99995
2018-06-10T21:24:31.066Z,100001
2018-06-10T21:26:57.264Z,100017
2018-06-10T21:29:23.697Z,100014
2018-06-10T21:31:49.746Z,100020
2018-06-10T21:34:15.765Z,100011
2018-06-10T21:36:41.787Z,100008
2018-06-10T21:39:07.811Z,100006
2018-06-10T21:41:33.896Z,100003
2018-06-10T21:43:59.931Z,100001
2018-06-10T21:46:25.983Z,100004
2018-06-10T21:48:52.006Z,100009
2018-06-10T21:51:18.029Z,100003
2018-06-10T21:53:44.053Z,99993
2018-06-10T21:56:10.057Z,99992
2018-06-10T21:58:36.082Z,99989
2018-06-10T22:01:02.099Z,99990
2018-06-10T22:03:28.205Z,99984
2018-06-10T22:05:54.228Z,99978
2018-06-10T22:08:20.263Z,99983
2018-06-10T22:10:46.263Z,99976
2018-06-10T22:13:12.283Z,99972
2018-06-10T22:15:38.316Z,99963
2018-06-10T22:18:04.359Z,99951
2018-06-10T22:20:30.375Z,99948
2018-06-10T22:22:56.402Z,99936
2018-06-10T22:25:22.398Z,99936
2018-06-10T22:27:48.422Z,99933
2018-06-10T22:30:14.446Z,99941
2018-06-10T22:32:40.468Z,99934
2018-06-10T22:35:06.486Z,99921
2018-06-10T22:37:32.502Z,99922
2018-06-10T22:39:58.514Z,99927
2018-06-10T22:42:24.531Z,99934
2018-06-10T22:44:50.537Z,99947
2018-06-10T22:47:16.560Z,99944
2018-06-10T22:49:42.571Z,99948
2018-06-10T22:52:08.596Z,99950
2018-06-10T22:54:34.611Z,99941
2018-06-10T22:57:00.619Z,99952
2018-06-10T22:59:26.644Z,99948
2018-06-10T23:01:52.666Z,99943
2018-06-10T23:04:18.719Z,99940
2018-06-10T23:06:44.746Z,99939
2018-06-10T23:09:10.774Z,99935
2018-06-10T23:11:36.787Z,99947
2018-06-10T23:14:02.814Z,99946
2018-06-10T23:16:28.848Z,99946
2018-06-10T23:18:54.879Z,99943
2018-06-10T23:21:20.908Z,99949
2018-06-10T23:23:46.942Z,99951
2018-06-10T23:26:12.994Z,99956
2018-06-10T23:28:39.121Z,99954
2018-06-10T23:31:05.181Z,99954
2018-06-10T23:33:31.219Z,99953
2018-06-10T23:35:57.334Z,99960
2018-06-10T23:38:23.967Z,99956
2018-06-10T23:40:49.993Z,99959
2018-06-10T23:43:16.039Z,99957
2018-06-10T23:45:42.102Z,99963
2018-06-10T23:48:08.535Z,99967
2018-06-10T23:50:34.595Z,99956
2018-06-10T23:53:00.618Z,99957
2018-06-10T23:55:26.747Z,99948
2018-06-10T23:57:52.795Z,99944
